createdAt,value
2019-03-26T00:01:40.321Z,3.90
2019-03-26T00:04:08.886Z,3.90
2019-03-26T00:06:37.296Z,3.90
2019-03-26T00:09:07.934Z,3.90
2019-03-26T00:11:36.618Z,3.90
2019-03-26T00:14:05.173Z,3.90
2019-03-26T00:19:01.679Z,3.90
2019-03-26T00:21:30.156Z,4.00
2019-03-26T00:23:58.561Z,4.00
2019-03-26T00:31:23.233Z,4.00
2019-03-26T00:33:51.663Z,3.90
2019-03-26T00:36:20.060Z,3.90
2019-03-26T00:38:48.527Z,3.80
2019-03-26T00:41:17.085Z,3.80
2019-03-26T00:43:45.474Z,3.80
2019-03-26T00:48:42.115Z,3.80
2019-03-26T00:51:10.526Z,3.80
2019-03-26T00:56:07.019Z,3.70
2019-03-26T00:58:35.425Z,3.70
2019-03-26T01:01:04.362Z,3.60
2019-03-26T01:03:32.757Z,3.50
2019-03-26T01:06:01.165Z,3.50
2019-03-26T01:08:29.588Z,3.40
2019-03-26T01:13:26.148Z,3.50
2019-03-26T01:18:22.620Z,3.40
2019-03-26T01:20:51.017Z,3.40
2019-03-26T01:23:19.458Z,3.30
2019-03-26T01:25:47.885Z,3.20
2019-03-26T01:28:16.326Z,3.20
2019-03-26T01:30:44.741Z,3.20
2019-03-26T01:33:13.144Z,3.10
2019-03-26T01:35:41.539Z,3.10
2019-03-26T01:40:48.713Z,3.10
2019-03-26T01:48:30.060Z,3.20
2019-03-26T01:50:58.486Z,3.20
2019-03-26T01:53:26.887Z,3.30
2019-03-26T01:58:31.213Z,3.40
2019-03-26T02:03:28.252Z,3.40
2019-03-26T02:08:24.769Z,3.50
2019-03-26T02:10:53.152Z,3.40
2019-03-26T02:13:21.571Z,3.40
2019-03-26T02:18:18.120Z,3.50
2019-03-26T02:20:46.512Z,3.60
2019-03-26T02:23:15.464Z,3.70
2019-03-26T02:28:12.776Z,3.70
2019-03-26T02:30:41.173Z,3.70
2019-03-26T02:33:09.595Z,3.70
2019-03-26T02:35:38.062Z,3.70
2019-03-26T02:38:06.465Z,3.60
2019-03-26T02:40:34.878Z,3.60
2019-03-26T02:45:31.353Z,3.60
2019-03-26T02:50:27.842Z,3.60
2019-03-26T02:52:56.234Z,3.60
2019-03-26T02:55:24.847Z,3.60
2019-03-26T03:00:21.737Z,3.60
2019-03-26T03:02:50.213Z,3.60
2019-03-26T03:05:34.276Z,3.60
2019-03-26T03:12:45.178Z,3.70
2019-03-26T03:15:13.901Z,3.70
2019-03-26T03:17:42.314Z,3.60
2019-03-26T03:20:11.253Z,3.60
2019-03-26T03:22:39.772Z,3.60
2019-03-26T03:27:36.606Z,3.70
2019-03-26T03:30:08.042Z,3.70
2019-03-26T03:32:36.466Z,3.60
2019-03-26T03:35:06.935Z,3.60
2019-03-26T03:37:35.385Z,3.60
2019-03-26T03:40:05.104Z,3.60
2019-03-26T03:42:33.510Z,3.60
2019-03-26T03:45:01.906Z,3.60
2019-03-26T03:47:32.914Z,3.60
2019-03-26T03:50:02.464Z,3.50
2019-03-26T03:52:33.957Z,3.60
2019-03-26T03:55:02.425Z,3.60
2019-03-26T03:57:33.750Z,3.60
2019-03-26T04:00:05.107Z,3.60
2019-03-26T04:02:33.690Z,3.60
2019-03-26T04:05:02.107Z,3.60
2019-03-26T04:07:30.506Z,3.60
2019-03-26T04:09:58.980Z,3.60
2019-03-26T04:12:27.378Z,3.60
2019-03-26T04:14:55.764Z,3.60
2019-03-26T04:17:24.225Z,3.60
2019-03-26T04:22:20.721Z,3.60
2019-03-26T04:24:49.135Z,3.60
2019-03-26T04:30:31.958Z,3.60
2019-03-26T04:33:00.364Z,3.60
2019-03-26T04:37:56.863Z,3.60
2019-03-26T04:40:25.270Z,3.60
2019-03-26T04:42:53.680Z,3.60
2019-03-26T04:45:22.269Z,3.60
2019-03-26T04:55:14.901Z,3.40
2019-03-26T05:00:12.022Z,3.40
2019-03-26T05:02:40.440Z,3.40
2019-03-26T05:07:36.933Z,3.30
2019-03-26T05:12:42.218Z,3.20
2019-03-26T05:15:10.871Z,3.20
2019-03-26T05:17:39.314Z,3.20
2019-03-26T05:22:46.667Z,3.40
2019-03-26T05:30:56.710Z,3.40
2019-03-26T05:38:21.349Z,3.30
2019-03-26T05:40:49.740Z,3.30
2019-03-26T05:43:18.154Z,3.30
2019-03-26T05:45:46.553Z,3.40
2019-03-26T05:48:14.964Z,3.40
2019-03-26T05:50:43.362Z,3.50
2019-03-26T05:53:11.756Z,3.60
2019-03-26T05:55:40.168Z,3.70
2019-03-26T06:00:36.655Z,3.90
2019-03-26T06:03:05.051Z,4.00
2019-03-26T06:05:33.492Z,4.10
2019-03-26T06:08:01.930Z,4.20
2019-03-26T06:10:30.443Z,4.30
2019-03-26T06:12:58.835Z,4.30
2019-03-26T06:17:57.571Z,4.50
2019-03-26T06:22:53.568Z,4.60
2019-03-26T06:25:21.976Z,4.60
2019-03-26T06:27:50.377Z,4.60
2019-03-26T06:30:18.840Z,4.60
2019-03-26T06:32:47.247Z,4.50
2019-03-26T06:35:15.661Z,4.50
2019-03-26T06:37:44.100Z,4.60
2019-03-26T06:42:40.884Z,4.80
2019-03-26T06:45:10.418Z,4.90
2019-03-26T06:47:38.968Z,4.90
2019-03-26T06:50:09.102Z,4.90
2019-03-26T06:52:37.508Z,4.80
2019-03-26T06:55:07.149Z,4.80
2019-03-26T06:57:36.185Z,4.70
2019-03-26T07:00:07.813Z,4.70
2019-03-26T07:02:36.230Z,4.60
2019-03-26T07:05:05.522Z,4.50
2019-03-26T07:07:34.063Z,4.70
2019-03-26T07:10:02.471Z,5.10
2019-03-26T07:14:58.952Z,6.70
2019-03-26T07:17:27.417Z,7.30
2019-03-26T07:19:55.860Z,7.70
2019-03-26T07:22:24.260Z,8.10
2019-03-26T07:24:52.665Z,8.00
2019-03-26T07:27:21.135Z,7.90
2019-03-26T07:29:49.573Z,7.80
2019-03-26T07:32:18.365Z,7.50
2019-03-26T07:34:46.781Z,7.30
2019-03-26T07:37:15.177Z,7.20
2019-03-26T07:39:43.602Z,7.70
2019-03-26T07:42:12.013Z,7.90
2019-03-26T07:44:40.416Z,7.70
2019-03-26T07:47:08.817Z,7.40
2019-03-26T07:49:37.221Z,7.10
2019-03-26T07:52:05.641Z,6.90
2019-03-26T07:54:34.041Z,6.70
2019-03-26T07:59:49.918Z,6.60
2019-03-26T08:02:18.333Z,6.70
2019-03-26T08:04:46.845Z,6.80
2019-03-26T08:09:43.412Z,7.10
2019-03-26T08:12:11.821Z,7.10
2019-03-26T08:17:08.423Z,7.20
2019-03-26T08:19:36.894Z,7.30
2019-03-26T08:22:05.296Z,7.40
2019-03-26T08:24:33.693Z,7.50
2019-03-26T08:27:02.101Z,7.70
2019-03-26T08:31:58.603Z,7.80
2019-03-26T08:34:27.025Z,7.90
2019-03-26T08:41:51.710Z,8.70
2019-03-26T08:44:20.110Z,9.20
2019-03-26T08:46:48.521Z,9.60
2019-03-26T08:49:16.914Z,9.60
2019-03-26T08:51:45.330Z,9.70
2019-03-26T08:56:41.823Z,9.50
2019-03-26T09:01:38.321Z,10.10
2019-03-26T09:04:06.730Z,10.30
2019-03-26T09:06:35.140Z,10.50
2019-03-26T09:09:05.081Z,10.50
2019-03-26T09:11:33.520Z,10.30
2019-03-26T09:16:30.032Z,10.40
2019-03-26T09:21:26.617Z,12.60
2019-03-26T09:23:55.016Z,12.80
2019-03-26T09:26:23.477Z,13.10
2019-03-26T09:28:51.869Z,13.20
2019-03-26T09:31:20.283Z,13.60
2019-03-26T09:33:48.688Z,14.20
2019-03-26T09:36:17.107Z,13.90
2019-03-26T09:38:45.549Z,13.00
2019-03-26T09:41:14.023Z,12.30
2019-03-26T09:46:10.532Z,11.30
2019-03-26T09:48:38.951Z,11.00
2019-03-26T09:51:07.378Z,10.70
2019-03-26T09:53:35.781Z,10.40
2019-03-26T09:56:04.180Z,10.10
2019-03-26T09:58:32.600Z,9.90
2019-03-26T10:01:01.260Z,9.80
2019-03-26T10:03:29.682Z,9.70
2019-03-26T10:05:58.081Z,9.50
2019-03-26T10:08:26.511Z,9.60
2019-03-26T10:15:51.087Z,9.50
2019-03-26T10:18:19.508Z,9.30
2019-03-26T10:20:47.934Z,9.20
2019-03-26T10:23:16.411Z,9.30
2019-03-26T10:25:44.836Z,9.30
2019-03-26T10:28:13.304Z,9.20
2019-03-26T10:30:42.084Z,9.20
2019-03-26T10:35:38.564Z,8.90
2019-03-26T10:38:07.109Z,8.90
2019-03-26T10:43:04.803Z,8.90
2019-03-26T10:45:33.197Z,9.00
2019-03-26T10:48:01.716Z,8.90
2019-03-26T10:50:30.233Z,9.00
2019-03-26T10:52:58.656Z,9.00
2019-03-26T10:55:27.076Z,9.10
2019-03-26T10:57:55.480Z,9.00
2019-03-26T11:00:24.420Z,9.10
2019-03-26T11:02:54.153Z,9.20
2019-03-26T11:05:22.956Z,9.30
2019-03-26T11:07:51.357Z,9.50
2019-03-26T11:12:48.812Z,9.80
2019-03-26T11:15:17.285Z,9.90
2019-03-26T11:17:45.734Z,10.00
2019-03-26T11:22:42.286Z,10.40
2019-03-26T11:30:09.557Z,10.20
2019-03-26T11:32:38.058Z,10.10
2019-03-26T11:35:07.996Z,10.20
2019-03-26T11:37:36.412Z,10.30
2019-03-26T11:40:06.953Z,10.10
2019-03-26T11:42:35.357Z,9.90
2019-03-26T11:45:05.710Z,9.80
2019-03-26T11:47:34.147Z,9.60
2019-03-26T11:50:04.785Z,9.60
2019-03-26T11:55:01.122Z,9.80
2019-03-26T11:57:29.521Z,9.90
2019-03-26T11:59:57.923Z,9.90
2019-03-26T12:02:26.414Z,9.80
2019-03-26T12:04:55.111Z,9.70
2019-03-26T12:12:19.665Z,9.50
2019-03-26T12:14:48.069Z,9.40
2019-03-26T12:17:16.505Z,9.40
2019-03-26T12:19:44.920Z,9.40
2019-03-26T12:22:32.672Z,9.40
2019-03-26T12:25:01.085Z,9.40
2019-03-26T12:29:57.566Z,9.20
2019-03-26T12:32:25.972Z,9.20
2019-03-26T12:34:54.378Z,9.10
2019-03-26T12:37:22.835Z,9.10
2019-03-26T12:39:59.497Z,9.10
2019-03-26T12:42:21.364Z,9.20
2019-03-26T12:44:49.776Z,9.20
2019-03-26T12:47:18.178Z,9.20
2019-03-26T12:52:14.656Z,9.20
2019-03-26T12:54:43.074Z,9.30
2019-03-26T12:57:13.864Z,9.30
2019-03-26T12:59:41.593Z,9.30
2019-03-26T13:07:06.149Z,9.50
2019-03-26T13:09:34.562Z,9.50
2019-03-26T13:12:02.969Z,9.50
2019-03-26T13:14:31.382Z,9.60
2019-03-26T13:16:59.779Z,9.50
2019-03-26T13:19:28.200Z,9.60
2019-03-26T13:21:56.605Z,9.60
2019-03-26T13:24:25.018Z,9.60
2019-03-26T13:26:53.416Z,9.50
2019-03-26T13:31:49.888Z,9.20
2019-03-26T13:34:18.314Z,9.20
2019-03-26T13:36:46.721Z,9.10
2019-03-26T13:41:43.247Z,8.90
2019-03-26T13:44:11.731Z,8.90
2019-03-26T13:46:40.134Z,9.00
2019-03-26T13:51:37.321Z,9.10
2019-03-26T13:54:05.970Z,9.20
2019-03-26T13:56:34.377Z,9.20
2019-03-26T13:59:02.780Z,9.20
2019-03-26T14:01:31.190Z,9.20
2019-03-26T14:03:59.580Z,9.20
2019-03-26T14:08:56.061Z,9.30
2019-03-26T14:11:24.472Z,9.40
2019-03-26T14:13:52.869Z,9.40
2019-03-26T14:16:21.280Z,9.50
2019-03-26T14:18:49.683Z,9.50
2019-03-26T14:21:18.092Z,9.50
2019-03-26T14:23:46.497Z,9.50
2019-03-26T14:26:14.966Z,9.40
2019-03-26T14:28:43.389Z,9.40
2019-03-26T14:31:11.806Z,9.60
2019-03-26T14:33:40.188Z,9.50
2019-03-26T14:36:08.594Z,9.50
2019-03-26T14:38:36.992Z,9.40
2019-03-26T14:41:05.476Z,9.30
2019-03-26T14:43:33.873Z,9.30
2019-03-26T14:50:58.415Z,9.30
2019-03-26T14:53:26.812Z,9.20
2019-03-26T14:55:55.241Z,9.10
2019-03-26T14:58:23.634Z,9.00
2019-03-26T15:10:44.376Z,8.50
2019-03-26T15:13:12.766Z,8.50
2019-03-26T15:15:41.181Z,8.50
2019-03-26T15:18:09.563Z,8.40
2019-03-26T15:20:37.981Z,8.50
2019-03-26T15:23:06.377Z,8.50
2019-03-26T15:25:34.783Z,8.50
2019-03-26T15:28:03.187Z,8.60
2019-03-26T15:30:31.595Z,8.60
2019-03-26T15:35:28.064Z,8.70
2019-03-26T15:37:56.472Z,8.70
2019-03-26T15:40:24.873Z,8.60
2019-03-26T15:42:53.282Z,8.60
2019-03-26T15:45:21.681Z,8.50
2019-03-26T15:47:50.129Z,8.50
2019-03-26T15:50:24.517Z,8.50
2019-03-26T15:52:52.924Z,8.50
2019-03-26T15:57:49.415Z,8.40
2019-03-26T16:00:20.881Z,8.40
2019-03-26T16:02:49.292Z,8.30
2019-03-26T16:05:17.693Z,8.30
2019-03-26T16:13:02.006Z,8.20
2019-03-26T16:15:43.125Z,8.10
2019-03-26T16:18:00.644Z,8.10
2019-03-26T16:20:29.040Z,8.00
2019-03-26T16:22:57.457Z,8.00
2019-03-26T16:25:25.861Z,8.00
2019-03-26T16:27:54.270Z,7.90
2019-03-26T16:30:22.664Z,7.90
2019-03-26T16:32:51.188Z,7.90
2019-03-26T16:35:19.589Z,7.90
2019-03-26T16:40:16.203Z,7.90
2019-03-26T16:42:44.611Z,7.80
2019-03-26T16:45:13.183Z,7.80
2019-03-26T16:47:41.585Z,7.70
2019-03-26T16:50:10.331Z,7.70
2019-03-26T16:52:38.799Z,7.70
2019-03-26T16:55:07.616Z,7.60
2019-03-26T16:57:36.028Z,7.60
2019-03-26T17:00:06.258Z,7.50
2019-03-26T17:02:34.665Z,7.40
2019-03-26T17:07:31.521Z,7.30
2019-03-26T17:09:59.924Z,7.30
2019-03-26T17:12:28.332Z,7.30
2019-03-26T17:14:56.737Z,7.20
2019-03-26T17:17:25.144Z,7.10
2019-03-26T17:19:53.546Z,7.10
2019-03-26T17:22:21.990Z,7.00
2019-03-26T17:27:19.329Z,6.90
2019-03-26T17:29:47.732Z,6.80
2019-03-26T17:32:16.143Z,6.80
2019-03-26T17:34:44.532Z,6.70
2019-03-26T17:39:41.012Z,6.60
2019-03-26T17:42:17.205Z,6.60
2019-03-26T17:44:39.548Z,6.60
2019-03-26T17:47:07.959Z,6.60
2019-03-26T17:49:36.369Z,6.60
2019-03-26T17:52:04.884Z,6.60
2019-03-26T17:54:33.299Z,6.60
2019-03-26T17:57:01.768Z,6.50
2019-03-26T18:06:54.635Z,6.50
2019-03-26T18:11:51.151Z,6.40
2019-03-26T18:14:19.550Z,6.40
2019-03-26T18:19:16.040Z,6.40
2019-03-26T18:21:51.432Z,6.40
2019-03-26T18:24:14.577Z,6.40
2019-03-26T18:29:11.056Z,6.30
2019-03-26T18:31:39.542Z,6.40
2019-03-26T18:34:08.135Z,6.40
2019-03-26T18:36:36.596Z,6.30
2019-03-26T18:39:07.667Z,6.20
2019-03-26T18:46:32.583Z,6.10
2019-03-26T18:49:00.988Z,6.10
2019-03-26T18:51:29.391Z,6.10
2019-03-26T18:53:57.798Z,6.00
2019-03-26T18:56:26.193Z,6.10
2019-03-26T18:58:54.600Z,6.10
2019-03-26T19:01:23.005Z,6.10
2019-03-26T19:06:19.889Z,6.00
2019-03-26T19:08:48.319Z,6.00
2019-03-26T19:11:16.724Z,6.10
2019-03-26T19:13:45.206Z,6.10
2019-03-26T19:16:13.592Z,6.00
2019-03-26T19:18:41.996Z,6.00
2019-03-26T19:23:39.096Z,6.00
2019-03-26T19:28:35.812Z,6.00
2019-03-26T19:31:04.219Z,6.00
2019-03-26T19:33:32.628Z,6.00
2019-03-26T19:36:20.381Z,6.00
2019-03-26T19:38:48.858Z,6.00
2019-03-26T19:43:45.337Z,6.00
2019-03-26T19:46:13.744Z,6.00
2019-03-26T19:48:42.140Z,6.00
2019-03-26T19:51:10.604Z,6.00
2019-03-26T19:53:39.076Z,6.00
2019-03-26T19:56:07.490Z,5.90
2019-03-26T19:58:35.888Z,6.00
2019-03-26T20:01:04.369Z,5.90
2019-03-26T20:08:30.673Z,5.80
2019-03-26T20:10:59.090Z,5.80
2019-03-26T20:15:55.600Z,5.80
2019-03-26T20:18:24.055Z,5.80
2019-03-26T20:20:52.536Z,5.80
2019-03-26T20:23:21.220Z,5.80
2019-03-26T20:28:17.689Z,5.80
2019-03-26T20:30:46.097Z,5.80
2019-03-26T20:38:18.732Z,5.80
2019-03-26T20:40:47.196Z,5.80
2019-03-26T20:43:15.588Z,5.80
2019-03-26T20:45:44.015Z,5.80
2019-03-26T20:48:12.413Z,5.80
2019-03-26T20:50:40.862Z,5.90
2019-03-26T20:53:09.312Z,5.80
2019-03-26T20:55:37.713Z,5.80
2019-03-26T20:58:06.506Z,5.90
2019-03-26T21:03:07.309Z,5.90
2019-03-26T21:15:56.636Z,5.80
2019-03-26T21:18:16.755Z,5.90
2019-03-26T21:23:19.015Z,5.80
2019-03-26T21:25:47.417Z,5.90
2019-03-26T21:28:15.831Z,5.90
2019-03-26T21:30:44.228Z,5.80
2019-03-26T21:33:12.636Z,5.90
2019-03-26T21:35:41.134Z,5.90
2019-03-26T21:38:09.548Z,5.80
2019-03-26T21:40:38.232Z,5.80
2019-03-26T21:43:06.642Z,5.80
2019-03-26T21:45:36.580Z,5.80
2019-03-26T21:48:07.030Z,5.70
2019-03-26T21:50:35.437Z,5.70
2019-03-26T21:53:04.030Z,5.70
2019-03-26T21:58:00.563Z,5.70
2019-03-26T22:00:28.955Z,5.70
2019-03-26T22:02:57.376Z,5.60
2019-03-26T22:07:53.853Z,5.60
2019-03-26T22:12:50.327Z,5.60
2019-03-26T22:15:19.268Z,5.60
2019-03-26T22:20:15.988Z,5.60
2019-03-26T22:22:44.449Z,5.60
2019-03-26T22:25:13.349Z,5.60
2019-03-26T22:27:41.755Z,5.60
2019-03-26T22:30:11.389Z,5.60
2019-03-26T22:32:39.834Z,5.50
2019-03-26T22:42:34.792Z,5.60
2019-03-26T22:45:05.128Z,5.60
2019-03-26T22:47:33.520Z,5.60
2019-03-26T22:50:01.935Z,5.60
2019-03-26T22:52:30.351Z,5.60
2019-03-26T22:54:58.756Z,5.60
2019-03-26T22:57:27.157Z,5.60
2019-03-26T22:59:55.561Z,5.60
2019-03-26T23:04:52.041Z,5.50
2019-03-26T23:07:20.480Z,5.50
2019-03-26T23:09:48.894Z,5.50
2019-03-26T23:12:17.288Z,5.50
2019-03-26T23:17:14.146Z,5.40
2019-03-26T23:22:21.333Z,5.50
2019-03-26T23:24:49.740Z,5.50
2019-03-26T23:27:18.138Z,5.50
2019-03-26T23:29:46.553Z,5.50
2019-03-26T23:32:15.005Z,5.50
2019-03-26T23:34:43.409Z,5.40
2019-03-26T23:37:11.803Z,5.40
2019-03-26T23:39:40.261Z,5.40
2019-03-26T23:42:08.652Z,5.40
2019-03-26T23:44:37.069Z,5.40
2019-03-26T23:47:05.473Z,5.50
2019-03-26T23:49:33.889Z,5.50
2019-03-26T23:52:02.289Z,5.50
2019-03-26T23:56:58.771Z,5.50
2019-03-26T23:59:27.178Z,5.40
